Terminal Aerodrome Forecast
Issued by NWS

Home | Current Version | Previous Version | Text Only | Print | Product List | Glossary On
Versions: 1 2 3 4 5 6 7 8 9 10 11 12 13 14 15 16 17
719
FTUS45 KRIW 250520
TAFLND
TAF
KLND 250520Z 2506/2606 VRB06KT P6SM BKN120
     FM251600 VRB06KT P6SM VCTS SCT060CB BKN080
     FM252100 VRB10G20KT P6SM VCTS SCT050CB BKN100
     FM260100 VRB06KT P6SM VCSH BKN080=

USA.gov is the U.S. government's official web portal to all federal, state and local government web resources and services.